Time;durP1;ratioP1;P1;durP2;ratioP2;P2;SDS_P1;SDS_P2;PMS_P1;PMS_P2;Temp;Humidity;BMP_temperature;BMP_pressure;BME280_temperature;BME280_humidity;BME280_pressure;Samples;Min_cycle;Max_cycle;Signal;HPM_P1;HPM_P2
2021/03/15 00:00:11;;;;;;;4.40;4.03;;;4.20;99.90;;;;;;5071632;28;20211;-39
2021/03/15 00:02:39;;;;;;;4.65;4.18;;;4.20;99.90;;;;;;5071881;28;20211;-39
2021/03/15 00:05:08;;;;;;;4.30;3.90;;;4.20;99.90;;;;;;5072621;28;20298;-39
2021/03/15 00:07:35;;;;;;;5.50;4.20;;;4.20;99.90;;;;;;5071710;28;20243;-40
2021/03/15 00:10:04;;;;;;;4.80;4.40;;;4.20;99.90;;;;;;5071619;28;20382;-40
2021/03/15 00:12:32;;;;;;;5.25;4.70;;;4.30;99.90;;;;;;5071491;28;20287;-39
2021/03/15 00:14:59;;;;;;;4.25;3.95;;;4.20;99.90;;;;;;5071582;28;20245;-39
2021/03/15 00:17:27;;;;;;;6.13;5.60;;;4.20;99.90;;;;;;5071666;28;20394;-40
2021/03/15 00:19:54;;;;;;;4.95;4.55;;;4.20;99.90;;;;;;5071599;28;20207;-40
2021/03/15 00:22:22;;;;;;;5.75;4.78;;;4.20;99.90;;;;;;5071790;28;20206;-40
2021/03/15 00:24:49;;;;;;;6.75;5.05;;;4.20;99.90;;;;;;5071477;28;20239;-39
2021/03/15 00:27:16;;;;;;;6.20;5.65;;;4.20;99.90;;;;;;5071003;28;20215;-39
2021/03/15 00:29:43;;;;;;;6.07;5.47;;;4.20;99.90;;;;;;5071274;28;20298;-39
2021/03/15 00:32:10;;;;;;;5.53;5.03;;;4.20;99.90;;;;;;5071153;28;20646;-39
2021/03/15 00:34:38;;;;;;;8.55;5.10;;;4.20;99.90;;;;;;5071399;28;20211;-39
2021/03/15 00:37:06;;;;;;;8.82;5.60;;;4.20;99.90;;;;;;5071549;28;20598;-40
2021/03/15 00:39:33;;;;;;;5.68;5.07;;;4.20;99.90;;;;;;5071412;28;20261;-40
2021/03/15 00:42:00;;;;;;;7.00;5.03;;;4.20;99.90;;;;;;5071484;28;20344;-39
2021/03/15 00:44:27;;;;;;;5.00;4.60;;;4.20;99.90;;;;;;5071092;28;20207;-40
2021/03/15 00:46:54;;;;;;;5.22;4.82;;;4.20;99.90;;;;;;5071482;28;20242;-40
2021/03/15 00:49:21;;;;;;;4.90;4.50;;;4.20;99.90;;;;;;5071277;28;20215;-39
2021/03/15 00:51:49;;;;;;;8.13;5.35;;;4.20;99.90;;;;;;5071362;28;20213;-41
2021/03/15 00:54:16;;;;;;;5.55;4.93;;;4.20;99.90;;;;;;5074055;28;20629;-39
2021/03/15 00:56:43;;;;;;;6.70;4.90;;;4.20;99.90;;;;;;5075602;28;20313;-39
2021/03/15 00:59:10;;;;;;;6.50;5.40;;;4.20;99.90;;;;;;5075410;28;20207;-40
2021/03/15 01:01:37;;;;;;;12.25;7.97;;;4.30;99.90;;;;;;5075247;28;20250;-40
2021/03/15 01:04:05;;;;;;;5.55;5.05;;;4.30;99.90;;;;;;5075414;28;20617;-40
2021/03/15 01:06:40;;;;;;;5.00;4.60;;;4.40;99.90;;;;;;5075308;28;20729;-39
2021/03/15 01:09:08;;;;;;;6.40;4.75;;;4.40;99.90;;;;;;5075277;28;20218;-40
2021/03/15 01:11:35;;;;;;;4.70;4.30;;;4.50;99.90;;;;;;5074937;28;20241;-40
2021/03/15 01:14:03;;;;;;;4.97;4.47;;;4.50;99.90;;;;;;5067778;28;20284;-40
2021/03/15 01:16:29;;;;;;;5.70;4.28;;;4.60;99.90;;;;;;5055017;28;20235;-40
2021/03/15 01:18:57;;;;;;;4.68;4.28;;;4.60;99.90;;;;;;5055189;28;20275;-40
2021/03/15 01:21:25;;;;;;;5.78;5.05;;;4.50;99.90;;;;;;5054962;28;20254;-40
2021/03/15 01:23:52;;;;;;;5.78;4.60;;;4.40;99.90;;;;;;5055328;28;20371;-40
2021/03/15 01:26:20;;;;;;;4.70;3.95;;;4.30;99.90;;;;;;5054906;28;20804;-40
2021/03/15 01:28:47;;;;;;;4.57;4.18;;;4.30;99.90;;;;;;5054772;28;20643;-40
2021/03/15 01:31:14;;;;;;;5.32;4.47;;;4.30;99.90;;;;;;5054877;28;20242;-40
2021/03/15 01:33:42;;;;;;;4.25;3.85;;;4.30;99.90;;;;;;5054755;28;20240;-40
2021/03/15 01:36:09;;;;;;;4.70;4.30;;;4.30;99.90;;;;;;5054568;28;20612;-40
2021/03/15 01:38:36;;;;;;;4.70;4.30;;;4.30;99.90;;;;;;5054799;28;20239;-40
2021/03/15 01:41:03;;;;;;;5.85;5.35;;;4.40;99.90;;;;;;5054633;28;20291;-40
2021/03/15 01:43:31;;;;;;;4.55;4.15;;;4.40;99.90;;;;;;5074115;28;20356;-40
2021/03/15 01:45:58;;;;;;;6.72;4.80;;;4.40;99.90;;;;;;5074466;28;20390;-39
2021/03/15 01:48:25;;;;;;;5.45;4.80;;;4.50;99.90;;;;;;5074273;28;20263;-40
2021/03/15 01:50:52;;;;;;;4.80;4.30;;;4.40;99.90;;;;;;5074625;28;20235;-40
2021/03/15 01:53:21;;;;;;;4.90;4.40;;;4.40;99.90;;;;;;5074471;28;20412;-40
2021/03/15 01:55:49;;;;;;;4.18;3.88;;;4.30;99.90;;;;;;5074415;28;20322;-39
2021/03/15 01:58:16;;;;;;;4.97;4.57;;;4.30;99.90;;;;;;5074478;28;20211;-40
2021/03/15 02:00:45;;;;;;;4.70;3.70;;;4.30;99.90;;;;;;5074159;28;20403;-40
2021/03/15 02:03:12;;;;;;;5.55;4.93;;;4.20;99.90;;;;;;5074129;28;20661;-40
2021/03/15 02:05:41;;;;;;;4.43;4.03;;;4.20;99.90;;;;;;5074313;28;20317;-40
2021/03/15 02:08:09;;;;;;;5.28;3.75;;;4.30;99.90;;;;;;5074068;28;20248;-40
2021/03/15 02:10:37;;;;;;;4.72;4.32;;;4.20;99.90;;;;;;5074267;28;20207;-40
2021/03/15 02:13:52;;;;;;;4.32;3.92;;;4.20;99.90;;;;;;5073980;28;20646;-40
2021/03/15 02:16:34;;;;;;;4.38;3.97;;;4.20;99.90;;;;;;4992155;28;20265;-40
2021/03/15 02:19:31;;;;;;;4.38;3.80;;;4.20;99.90;;;;;;5063381;28;20233;-40
2021/03/15 02:22:15;;;;;;;4.75;3.78;;;4.20;99.90;;;;;;5065264;28;20207;-40
2021/03/15 02:25:02;;;;;;;6.75;4.78;;;4.20;99.90;;;;;;5074180;28;20299;-40
2021/03/15 02:28:04;;;;;;;7.55;3.70;;;4.20;99.90;;;;;;5073788;28;20261;-40
2021/03/15 02:30:43;;;;;;;4.63;3.63;;;4.20;99.90;;;;;;5043290;28;20732;-40
2021/03/15 02:33:40;;;;;;;3.63;3.33;;;4.20;99.90;;;;;;5073875;28;20290;-40
2021/03/15 02:36:11;;;;;;;4.35;3.65;;;4.20;99.90;;;;;;5073358;28;20280;-40
2021/03/15 02:38:42;;;;;;;5.35;4.38;;;4.20;99.90;;;;;;5073431;28;20211;-40
2021/03/15 02:41:11;;;;;;;4.82;4.25;;;4.10;99.90;;;;;;5073604;28;20207;-40
2021/03/15 02:43:42;;;;;;;3.63;3.33;;;4.20;99.90;;;;;;5073364;28;20298;-40
2021/03/15 02:46:15;;;;;;;4.75;3.33;;;4.20;99.90;;;;;;5073290;28;20207;-40
2021/03/15 02:48:44;;;;;;;3.90;3.50;;;4.20;99.90;;;;;;5073385;28;20217;-40
2021/03/15 02:51:14;;;;;;;3.92;3.60;;;4.20;99.90;;;;;;5073296;28;20269;-40
2021/03/15 02:53:42;;;;;;;3.80;3.50;;;4.20;99.90;;;;;;5073345;28;20250;-40
2021/03/15 02:56:14;;;;;;;4.45;3.58;;;4.30;99.90;;;;;;5073135;28;20231;-40
2021/03/15 02:58:43;;;;;;;4.55;3.42;;;4.30;99.90;;;;;;5073240;28;20302;-39
2021/03/15 03:01:11;;;;;;;4.72;3.65;;;4.20;99.90;;;;;;5072998;28;20294;-40
2021/03/15 03:03:41;;;;;;;5.95;4.05;;;4.20;99.90;;;;;;5073243;28;20322;-40
2021/03/15 03:06:10;;;;;;;4.93;3.90;;;4.20;99.90;;;;;;5073078;28;20229;-40
2021/03/15 03:08:39;;;;;;;5.22;3.95;;;4.20;99.90;;;;;;5073260;28;20227;-40
2021/03/15 03:11:07;;;;;;;5.78;4.38;;;4.20;99.90;;;;;;5073061;28;20261;-41
2021/03/15 03:13:36;;;;;;;6.32;3.63;;;4.20;99.90;;;;;;5072867;28;20283;-40
2021/03/15 03:16:04;;;;;;;3.75;3.45;;;4.20;99.90;;;;;;5072348;28;20356;-41
2021/03/15 03:18:31;;;;;;;4.50;3.85;;;4.20;99.90;;;;;;5072952;28;20593;-41
2021/03/15 03:21:01;;;;;;;3.97;3.63;;;4.20;99.90;;;;;;5072717;28;20670;-40
2021/03/15 03:23:32;;;;;;;6.28;4.75;;;4.20;99.90;;;;;;5072822;28;20606;-40
2021/03/15 03:26:01;;;;;;;4.13;3.83;;;4.10;99.90;;;;;;5072623;28;20290;-40
2021/03/15 03:28:29;;;;;;;3.88;3.55;;;4.10;99.90;;;;;;5072598;28;20302;-40
2021/03/15 03:30:59;;;;;;;3.90;3.60;;;4.10;99.90;;;;;;5072750;28;20260;-40
2021/03/15 03:33:25;;;;;;;10.00;4.18;;;4.10;99.90;;;;;;5072476;28;20243;-40
2021/03/15 03:35:53;;;;;;;5.07;4.28;;;4.10;99.90;;;;;;5072713;28;20376;-40
2021/03/15 03:38:37;;;;;;;5.13;3.58;;;4.10;99.90;;;;;;5072507;28;20214;-40
2021/03/15 03:41:05;;;;;;;3.78;3.47;;;4.10;99.90;;;;;;5072250;28;20269;-41
2021/03/15 03:43:31;;;;;;;4.55;3.50;;;4.10;99.90;;;;;;5072409;28;20707;-41
2021/03/15 03:45:58;;;;;;;6.20;3.47;;;4.10;99.90;;;;;;5072754;28;20339;-40
2021/03/15 03:48:26;;;;;;;6.60;3.92;;;4.10;99.90;;;;;;5072511;28;20239;-40
2021/03/15 03:50:53;;;;;;;3.88;3.55;;;4.00;99.90;;;;;;5072161;28;20299;-40
2021/03/15 03:53:25;;;;;;;6.82;3.15;;;4.00;99.90;;;;;;5072092;28;20219;-40
2021/03/15 03:55:58;;;;;;;4.90;3.45;;;4.00;99.90;;;;;;5072046;28;20690;-40
2021/03/15 03:58:30;;;;;;;6.47;4.47;;;3.90;99.90;;;;;;5072237;28;20290;-40
2021/03/15 04:00:59;;;;;;;5.13;3.78;;;3.90;99.90;;;;;;5072417;28;20544;-40
2021/03/15 04:03:28;;;;;;;3.70;3.35;;;3.90;99.90;;;;;;5072056;28;20207;-40
2021/03/15 04:05:58;;;;;;;3.83;3.42;;;3.90;99.90;;;;;;5072014;28;20728;-40
2021/03/15 04:08:28;;;;;;;4.03;3.63;;;3.80;99.90;;;;;;5072193;28;20268;-40
2021/03/15 04:10:57;;;;;;;4.60;3.58;;;3.80;99.90;;;;;;5072120;28;20341;-40
2021/03/15 04:13:28;;;;;;;3.83;3.42;;;3.70;99.90;;;;;;5071904;28;20265;-40
2021/03/15 04:15:56;;;;;;;5.32;3.28;;;3.80;99.90;;;;;;5071762;28;20266;-40
2021/03/15 04:18:26;;;;;;;4.35;3.90;;;3.70;99.90;;;;;;5071786;28;20235;-40
2021/03/15 04:20:58;;;;;;;5.28;3.97;;;3.70;99.90;;;;;;5072151;28;20312;-40
2021/03/15 04:23:30;;;;;;;4.72;3.50;;;3.60;99.90;;;;;;5071797;28;20658;-39
2021/03/15 04:25:58;;;;;;;4.32;3.95;;;3.60;99.90;;;;;;5071972;28;20282;-39
2021/03/15 04:28:28;;;;;;;5.72;4.07;;;3.60;99.90;;;;;;5070858;28;20235;-40
2021/03/15 04:30:56;;;;;;;6.15;3.72;;;3.50;99.90;;;;;;5071705;28;20290;-40
2021/03/15 04:33:24;;;;;;;5.28;4.18;;;3.50;99.90;;;;;;5071787;28;20253;-40
2021/03/15 04:35:53;;;;;;;5.70;3.80;;;3.50;99.90;;;;;;5071510;28;20292;-40
2021/03/15 04:38:22;;;;;;;5.53;4.05;;;3.50;99.90;;;;;;5071479;28;20294;-40
2021/03/15 04:40:49;;;;;;;5.10;3.78;;;3.50;99.90;;;;;;5071473;28;20219;-40
2021/03/15 04:43:18;;;;;;;8.07;5.53;;;3.50;99.90;;;;;;5071431;28;20306;-40
2021/03/15 04:45:46;;;;;;;3.90;3.60;;;3.50;99.90;;;;;;5071609;28;20306;-40
2021/03/15 04:48:15;;;;;;;4.07;3.67;;;3.50;99.90;;;;;;5071084;28;20263;-40
2021/03/15 04:50:44;;;;;;;4.72;4.22;;;3.50;99.90;;;;;;5071458;28;20237;-40
2021/03/15 04:53:13;;;;;;;4.55;4.13;;;3.60;99.90;;;;;;5071269;28;20298;-40
2021/03/15 04:55:41;;;;;;;4.57;4.18;;;3.60;99.90;;;;;;5071218;28;20259;-41
2021/03/15 04:58:09;;;;;;;14.85;8.55;;;3.60;99.90;;;;;;5071065;28;20225;-40
2021/03/15 05:00:38;;;;;;;4.72;4.32;;;3.70;99.90;;;;;;5071197;28;20680;-40
2021/03/15 05:03:10;;;;;;;6.05;5.10;;;3.70;99.90;;;;;;5070877;28;20217;-40
2021/03/15 05:05:38;;;;;;;5.70;4.35;;;3.70;99.90;;;;;;5070908;28;20658;-40
2021/03/15 05:08:07;;;;;;;4.68;3.95;;;3.80;99.90;;;;;;5071003;28;20240;-40
2021/03/15 05:10:35;;;;;;;4.65;4.25;;;3.70;99.90;;;;;;5071150;28;20242;-39
2021/03/15 05:13:05;;;;;;;5.28;4.82;;;3.70;99.90;;;;;;5071012;28;20746;-40
2021/03/15 05:15:32;;;;;;;4.13;3.83;;;3.70;99.90;;;;;;5071160;28;20581;-39
2021/03/15 05:18:00;;;;;;;4.75;4.25;;;3.70;99.90;;;;;;5071142;28;20237;-39
2021/03/15 05:20:28;;;;;;;5.18;4.68;;;3.70;99.90;;;;;;5071089;28;20661;-39
2021/03/15 05:22:57;;;;;;;5.80;5.22;;;3.80;99.90;;;;;;5071105;28;20698;-39
2021/03/15 05:25:25;;;;;;;4.30;3.90;;;3.80;99.90;;;;;;5071123;28;20246;-39
2021/03/15 05:27:52;;;;;;;4.68;3.95;;;3.80;99.90;;;;;;5071094;28;20641;-40
2021/03/15 05:30:21;;;;;;;4.55;3.70;;;3.90;99.90;;;;;;5071038;28;20772;-40
2021/03/15 05:32:50;;;;;;;4.40;4.00;;;3.90;99.90;;;;;;5071083;28;20207;-40
2021/03/15 05:35:19;;;;;;;5.18;4.05;;;4.00;99.90;;;;;;5070940;28;20670;-42
2021/03/15 05:37:47;;;;;;;4.95;4.55;;;4.00;99.90;;;;;;5070764;28;20327;-42
2021/03/15 05:40:18;;;;;;;6.88;3.78;;;4.00;99.90;;;;;;5073704;28;20307;-40
2021/03/15 05:43:09;;;;;;;4.00;3.60;;;4.10;99.90;;;;;;5074647;28;20215;-40
2021/03/15 05:46:04;;;;;;;4.45;3.92;;;4.10;99.90;;;;;;5074628;28;20344;-40
2021/03/15 05:49:06;;;;;;;4.80;3.83;;;4.10;99.90;;;;;;5074504;28;20231;-40
2021/03/15 05:51:56;;;;;;;3.88;3.58;;;4.20;99.90;;;;;;5074429;28;20687;-40
2021/03/15 05:54:54;;;;;;;3.72;3.42;;;4.20;99.90;;;;;;5074321;28;20349;-41
2021/03/15 05:57:54;;;;;;;3.85;3.40;;;4.20;99.90;;;;;;5074057;28;20404;-41
2021/03/15 06:00:28;;;;;;;3.58;3.28;;;4.30;99.90;;;;;;5056784;28;20234;-41
2021/03/15 06:03:09;;;;;;;4.05;3.63;;;4.30;99.90;;;;;;5074090;28;20358;-41
2021/03/15 06:05:37;;;;;;;4.60;3.78;;;4.30;99.90;;;;;;5073882;28;20211;-41
2021/03/15 06:08:07;;;;;;;4.70;3.53;;;4.30;99.90;;;;;;5073988;28;20314;-41
2021/03/15 06:10:55;;;;;;;3.88;3.58;;;4.40;99.90;;;;;;5073838;28;20203;-41
2021/03/15 06:13:23;;;;;;;5.50;3.08;;;4.40;99.90;;;;;;5074206;28;20696;-41
2021/03/15 06:15:51;;;;;;;4.28;3.72;;;4.40;99.90;;;;;;5073896;28;20204;-42
2021/03/15 06:18:18;;;;;;;3.55;3.30;;;4.40;99.90;;;;;;5073937;28;20256;-42
2021/03/15 06:20:48;;;;;;;4.05;3.75;;;4.50;99.90;;;;;;5073579;28;20250;-41
2021/03/15 06:23:16;;;;;;;3.28;3.08;;;4.50;99.90;;;;;;5073818;28;20211;-42
2021/03/15 06:25:46;;;;;;;3.92;3.30;;;4.60;99.90;;;;;;5073774;28;20294;-43
2021/03/15 06:28:14;;;;;;;3.75;3.38;;;4.60;99.90;;;;;;5073989;28;20230;-42
2021/03/15 06:30:42;;;;;;;4.80;3.88;;;4.50;99.90;;;;;;5073860;28;20298;-41
2021/03/15 06:33:09;;;;;;;4.97;3.53;;;4.50;99.90;;;;;;5073401;28;20290;-42
2021/03/15 06:35:38;;;;;;;4.20;3.90;;;4.50;99.90;;;;;;5073386;28;20234;-42
2021/03/15 06:38:05;;;;;;;4.53;3.65;;;4.50;99.90;;;;;;5073336;28;20294;-43
2021/03/15 06:40:41;;;;;;;4.05;3.50;;;4.40;99.90;;;;;;5073504;28;20302;-42
2021/03/15 06:43:14;;;;;;;4.47;3.30;;;4.50;99.90;;;;;;5073628;28;20239;-41
2021/03/15 06:45:42;;;;;;;4.30;3.58;;;4.50;99.90;;;;;;5073336;28;20286;-41
2021/03/15 06:48:10;;;;;;;3.58;3.28;;;4.40;99.90;;;;;;5072953;28;20275;-41
2021/03/15 06:50:37;;;;;;;4.03;3.63;;;4.50;99.90;;;;;;5072044;28;20214;-41
2021/03/15 06:53:05;;;;;;;4.72;4.22;;;4.60;99.90;;;;;;5073291;28;20242;-41
2021/03/15 06:55:44;;;;;;;4.05;3.15;;;4.60;99.90;;;;;;5073080;28;20218;-41
2021/03/15 06:58:23;;;;;;;3.70;3.05;;;4.60;99.90;;;;;;5073027;28;20328;-42
2021/03/15 07:01:12;;;;;;;5.07;4.32;;;4.70;99.90;;;;;;5072939;28;20211;-42
2021/03/15 07:03:41;;;;;;;3.92;3.55;;;4.70;99.90;;;;;;5074058;28;20705;-41
2021/03/15 07:06:09;;;;;;;5.45;4.07;;;4.80;99.90;;;;;;5073028;28;20211;-41
2021/03/15 07:08:36;;;;;;;4.35;3.95;;;4.80;99.90;;;;;;5073217;28;20571;-41
2021/03/15 07:11:20;;;;;;;5.15;3.80;;;4.90;99.90;;;;;;5072755;28;20293;-40
2021/03/15 07:13:48;;;;;;;4.50;3.63;;;5.10;99.90;;;;;;5072559;28;20277;-40
2021/03/15 07:16:25;;;;;;;3.75;3.45;;;5.20;99.90;;;;;;5072590;28;20271;-41
2021/03/15 07:18:53;;;;;;;4.70;3.80;;;5.30;99.90;;;;;;5072750;28;20211;-41
2021/03/15 07:21:38;;;;;;;4.95;3.28;;;5.40;99.90;;;;;;5072690;28;20315;-40
2021/03/15 07:24:09;;;;;;;4.40;4.00;;;5.50;99.90;;;;;;5072885;28;20294;-37
2021/03/15 07:26:43;;;;;;;5.82;3.97;;;5.50;99.90;;;;;;5072320;28;20223;-39
2021/03/15 07:29:12;;;;;;;4.18;3.85;;;5.60;99.90;;;;;;5072626;28;20215;-39
2021/03/15 07:31:43;;;;;;;4.63;3.85;;;5.70;99.90;;;;;;5072122;28;20211;-40
2021/03/15 07:34:20;;;;;;;4.53;3.63;;;5.70;99.90;;;;;;5072252;28;20207;-41
2021/03/15 07:36:59;;;;;;;4.68;3.40;;;5.80;99.90;;;;;;5072438;28;20231;-41
2021/03/15 07:39:28;;;;;;;5.10;3.67;;;5.90;99.90;;;;;;5072172;28;20207;-40
2021/03/15 07:41:57;;;;;;;3.85;3.47;;;5.90;99.90;;;;;;5072277;28;20571;-44
2021/03/15 07:44:27;;;;;;;4.57;4.10;;;5.80;99.90;;;;;;5072058;28;20233;-41
2021/03/15 07:46:56;;;;;;;4.47;3.67;;;5.80;99.90;;;;;;5072277;28;20490;-41
2021/03/15 07:49:28;;;;;;;3.95;3.63;;;5.80;99.90;;;;;;5072225;28;20207;-43
2021/03/15 07:51:57;;;;;;;4.18;3.78;;;5.90;99.90;;;;;;5072170;28;20213;-45
2021/03/15 07:54:31;;;;;;;5.30;4.15;;;6.10;99.90;;;;;;5072137;28;20209;-43
2021/03/15 07:57:19;;;;;;;5.80;3.67;;;6.30;99.90;;;;;;5071837;28;20338;-45
2021/03/15 07:59:49;;;;;;;3.78;3.35;;;6.40;99.90;;;;;;5072368;28;20294;-42
2021/03/15 08:02:18;;;;;;;4.35;3.40;;;6.50;99.90;;;;;;5071630;28;20241;-41
2021/03/15 08:04:46;;;;;;;4.65;4.20;;;6.50;99.90;;;;;;5071761;28;20207;-40
2021/03/15 08:07:14;;;;;;;6.18;3.85;;;6.40;99.90;;;;;;5071776;28;20304;-40
2021/03/15 08:09:43;;;;;;;8.05;4.22;;;6.40;99.90;;;;;;5071760;28;20215;-40
2021/03/15 08:12:12;;;;;;;4.70;4.05;;;6.30;99.90;;;;;;5071655;28;20256;-40
2021/03/15 08:14:43;;;;;;;4.72;4.25;;;6.30;99.90;;;;;;5071735;28;20258;-40
2021/03/15 08:17:16;;;;;;;5.70;4.35;;;6.30;99.90;;;;;;5071567;28;20297;-43
2021/03/15 08:19:46;;;;;;;4.43;3.10;;;6.30;99.90;;;;;;5072320;28;20218;-40
2021/03/15 08:22:22;;;;;;;8.27;3.50;;;6.20;99.90;;;;;;5073362;28;20344;-40
2021/03/15 08:24:51;;;;;;;4.20;3.17;;;6.20;99.90;;;;;;5071875;28;20230;-39
2021/03/15 08:27:21;;;;;;;3.03;2.70;;;6.20;99.90;;;;;;5071792;28;20231;-39
2021/03/15 08:29:51;;;;;;;4.57;3.20;;;6.20;99.90;;;;;;5071633;28;20646;-40
2021/03/15 08:32:20;;;;;;;3.80;2.55;;;6.20;99.90;;;;;;5071677;28;20632;-40
2021/03/15 08:34:47;;;;;;;3.40;2.55;;;6.20;99.90;;;;;;5071484;28;20268;-40
2021/03/15 08:37:15;;;;;;;2.63;2.28;;;6.20;99.90;;;;;;5071445;28;20227;-40
2021/03/15 08:39:42;;;;;;;2.67;2.20;;;6.20;99.90;;;;;;5077124;28;20260;-40
2021/03/15 08:42:25;;;;;;;2.00;1.90;;;6.00;99.90;;;;;;5071423;28;20210;-40
2021/03/15 08:45:28;;;;;;;2.72;2.50;;;5.90;99.90;;;;;;5071619;28;20536;-41
2021/03/15 08:48:00;;;;;;;3.75;3.45;;;5.90;99.90;;;;;;5071347;28;20804;-40
2021/03/15 08:50:57;;;;;;;2.40;2.20;;;5.90;99.90;;;;;;5071449;28;20261;-40
2021/03/15 08:53:48;;;;;;;3.20;2.92;;;5.90;99.90;;;;;;5071360;28;20207;-40
2021/03/15 08:56:35;;;;;;;3.35;2.65;;;5.90;99.90;;;;;;5071466;28;20215;-40
2021/03/15 08:59:04;;;;;;;2.63;2.42;;;5.90;99.90;;;;;;5071329;28;20253;-40
2021/03/15 09:02:06;;;;;;;2.78;2.58;;;5.90;99.90;;;;;;5071221;28;20237;-40
2021/03/15 09:04:44;;;;;;;8.25;6.80;;;5.90;99.90;;;;;;5071664;28;20211;-40
2021/03/15 09:07:33;;;;;;;5.25;3.38;;;5.80;99.90;;;;;;5071298;28;20261;-40
2021/03/15 09:10:35;;;;;;;4.28;2.33;;;5.70;99.90;;;;;;5071096;28;20301;-40
2021/03/15 09:13:30;;;;;;;3.92;2.10;;;5.70;99.90;;;;;;5064957;28;20245;-40
2021/03/15 09:16:10;;;;;;;2.53;1.92;;;5.60;99.90;;;;;;5028876;28;20210;-40
2021/03/15 09:18:53;;;;;;;3.70;1.98;;;5.50;99.90;;;;;;5074871;28;20549;-40
2021/03/15 09:21:49;;;;;;;2.05;1.83;;;5.60;99.90;;;;;;5075203;28;20294;-41
2021/03/15 09:24:40;;;;;;;2.38;2.17;;;5.50;99.90;;;;;;5074849;28;20211;-42
2021/03/15 09:27:09;;;;;;;2.53;1.67;;;5.60;99.90;;;;;;5075028;28;20222;-41
2021/03/15 09:29:37;;;;;;;2.00;1.83;;;5.60;99.90;;;;;;5074864;28;20241;-41
2021/03/15 09:32:06;;;;;;;2.65;1.90;;;5.70;99.90;;;;;;5074836;28;20494;-41
2021/03/15 09:34:34;;;;;;;2.25;2.05;;;5.80;99.90;;;;;;5074732;28;20417;-42
2021/03/15 09:37:04;;;;;;;2.03;1.63;;;5.90;99.90;;;;;;5074345;28;20378;-43
2021/03/15 09:39:32;;;;;;;3.80;3.40;;;6.00;99.90;;;;;;5074463;28;20243;-41
2021/03/15 09:42:00;;;;;;;2.40;2.10;;;6.10;99.90;;;;;;5074842;28;20254;-41
2021/03/15 09:44:29;;;;;;;2.40;1.60;;;6.10;99.90;;;;;;5074555;28;20203;-41
2021/03/15 09:46:57;;;;;;;2.63;2.10;;;6.30;99.90;;;;;;5074147;28;20476;-44
2021/03/15 09:49:39;;;;;;;3.10;2.03;;;6.40;99.90;;;;;;5074363;28;20631;-43
2021/03/15 09:52:11;;;;;;;2.30;1.83;;;6.50;99.90;;;;;;5074319;28;20662;-43
2021/03/15 09:54:39;;;;;;;3.72;2.25;;;6.60;99.90;;;;;;5074235;28;20234;-44
2021/03/15 09:57:06;;;;;;;2.40;2.00;;;6.70;99.90;;;;;;5074327;28;20568;-42
2021/03/15 09:59:33;;;;;;;1.58;1.48;;;6.70;99.90;;;;;;5074444;28;20215;-41
2021/03/15 10:02:00;;;;;;;1.55;1.38;;;6.60;99.90;;;;;;5074227;28;20234;-41
2021/03/15 10:04:35;;;;;;;1.30;1.20;;;6.50;99.90;;;;;;5073994;28;20212;-40
2021/03/15 10:07:05;;;;;;;2.35;1.30;;;6.50;99.90;;;;;;5074040;28;20210;-40
2021/03/15 10:09:38;;;;;;;1.40;1.27;;;6.50;99.90;;;;;;5074196;28;20290;-43
2021/03/15 10:12:06;;;;;;;1.30;1.20;;;6.40;99.90;;;;;;5074145;28;20230;-40
2021/03/15 10:14:33;;;;;;;1.52;1.42;;;6.30;99.90;;;;;;5074024;28;20234;-40
2021/03/15 10:17:03;;;;;;;1.92;1.60;;;6.30;99.90;;;;;;5073949;28;20223;-41
2021/03/15 10:19:32;;;;;;;1.70;1.35;;;6.30;99.90;;;;;;5073884;28;20214;-41
2021/03/15 10:22:10;;;;;;;1.30;1.20;;;6.30;99.90;;;;;;5073884;28;20215;-41
2021/03/15 10:24:40;;;;;;;1.30;1.20;;;6.40;99.90;;;;;;5074181;28;20303;-41
2021/03/15 10:27:08;;;;;;;1.55;1.33;;;6.60;99.90;;;;;;5072594;28;20203;-41
2021/03/15 10:29:36;;;;;;;1.20;1.10;;;6.70;99.90;;;;;;5074038;28;20207;-41
2021/03/15 10:32:05;;;;;;;1.20;1.10;;;6.80;99.90;;;;;;5073658;28;20356;-41
2021/03/15 10:34:33;;;;;;;1.10;1.00;;;6.80;99.90;;;;;;5073994;28;20211;-41
2021/03/15 10:37:01;;;;;;;1.10;1.00;;;6.80;99.90;;;;;;5073592;28;20607;-42
2021/03/15 10:39:29;;;;;;;1.05;1.00;;;6.90;99.90;;;;;;5073761;28;20227;-41
2021/03/15 10:41:59;;;;;;;0.80;0.80;;;7.00;99.90;;;;;;5073525;28;20223;-41
2021/03/15 10:44:26;;;;;;;0.80;0.80;;;6.90;99.90;;;;;;5074295;28;20208;-41
2021/03/15 10:46:55;;;;;;;0.95;0.88;;;6.90;99.90;;;;;;5073385;28;20314;-41
2021/03/15 10:49:25;;;;;;;1.10;1.00;;;6.80;99.90;;;;;;5073403;28;20688;-42
2021/03/15 10:51:53;;;;;;;1.40;1.30;;;6.70;99.90;;;;;;5073368;28;20580;-41
2021/03/15 10:54:31;;;;;;;0.90;0.90;;;6.70;99.90;;;;;;5073356;28;20215;-42
2021/03/15 10:57:12;;;;;;;1.33;1.23;;;6.60;99.90;;;;;;5073500;28;20285;-42
2021/03/15 10:59:40;;;;;;;1.20;1.10;;;6.60;99.90;;;;;;5073527;28;20214;-41
2021/03/15 11:02:08;;;;;;;1.17;1.08;;;6.70;99.90;;;;;;5073316;28;20690;-40
2021/03/15 11:04:37;;;;;;;1.27;1.17;;;6.80;99.90;;;;;;5073191;28;20208;-41
2021/03/15 11:07:21;;;;;;;1.20;1.10;;;6.80;99.90;;;;;;5074191;28;20299;-41
2021/03/15 11:09:56;;;;;;;1.23;1.13;;;6.90;99.90;;;;;;5074116;28;20615;-42
2021/03/15 11:12:39;;;;;;;1.33;1.23;;;6.90;99.90;;;;;;5074739;28;20253;-42
2021/03/15 11:15:32;;;;;;;1.60;1.50;;;6.90;99.90;;;;;;5073946;28;20207;-42
2021/03/15 11:18:02;;;;;;;1.42;1.30;;;6.90;99.90;;;;;;5073125;28;20269;-43
2021/03/15 11:20:35;;;;;;;4.05;1.45;;;6.90;99.90;;;;;;5073010;28;20670;-41
2021/03/15 11:23:03;;;;;;;1.23;1.13;;;6.90;99.90;;;;;;5072924;28;20207;-41
2021/03/15 11:25:30;;;;;;;1.45;1.33;;;6.80;99.90;;;;;;5072698;28;20593;-41
2021/03/15 11:28:08;;;;;;;1.40;1.30;;;6.80;99.90;;;;;;5072825;28;20242;-42
2021/03/15 11:30:37;;;;;;;2.88;1.88;;;6.70;99.90;;;;;;5072568;28;20709;-41
2021/03/15 11:33:07;;;;;;;3.42;1.40;;;6.70;99.90;;;;;;5072720;28;20208;-41
2021/03/15 11:35:37;;;;;;;1.52;1.42;;;6.70;99.90;;;;;;5072632;28;20290;-41
2021/03/15 11:38:04;;;;;;;1.33;1.13;;;6.70;99.90;;;;;;5071710;28;20290;-41
2021/03/15 11:40:37;;;;;;;2.05;1.40;;;6.70;99.90;;;;;;5072262;28;20294;-43
2021/03/15 11:43:07;;;;;;;3.08;2.20;;;6.70;99.90;;;;;;5072463;28;20217;-41
2021/03/15 11:45:35;;;;;;;1.65;1.55;;;6.70;99.90;;;;;;5072180;28;20242;-41
2021/03/15 11:48:03;;;;;;;8.90;6.07;;;6.70;99.90;;;;;;5072058;28;20309;-40
2021/03/15 11:50:32;;;;;;;4.18;2.42;;;6.70;99.90;;;;;;5068938;28;20218;-40
2021/03/15 11:52:59;;;;;;;3.45;1.73;;;6.70;99.90;;;;;;5052261;28;20212;-41
2021/03/15 11:55:26;;;;;;;4.15;2.30;;;6.70;99.90;;;;;;5052024;28;20360;-40
2021/03/15 11:57:53;;;;;;;1.52;1.42;;;6.60;99.90;;;;;;5052059;28;20327;-40
2021/03/15 12:00:23;;;;;;;2.13;1.60;;;6.60;99.90;;;;;;5051831;28;20211;-41
2021/03/15 12:02:52;;;;;;;3.67;2.15;;;6.60;99.90;;;;;;5051790;28;20215;-40
2021/03/15 12:05:20;;;;;;;6.10;5.03;;;6.60;99.90;;;;;;5051791;28;20299;-39
2021/03/15 12:07:49;;;;;;;2.20;1.83;;;6.50;99.90;;;;;;5051493;28;20295;-40
2021/03/15 12:10:17;;;;;;;4.15;3.50;;;6.60;99.90;;;;;;5051339;28;20204;-40
2021/03/15 12:12:45;;;;;;;1.88;1.60;;;6.60;99.90;;;;;;5051518;28;20330;-39
2021/03/15 12:15:33;;;;;;;1.50;1.40;;;6.60;99.90;;;;;;5051169;28;20211;-40
2021/03/15 12:18:04;;;;;;;2.88;2.53;;;6.70;99.90;;;;;;5051365;28;20234;-40
2021/03/15 12:20:31;;;;;;;1.63;1.52;;;6.60;99.90;;;;;;5051487;28;20639;-40
2021/03/15 12:22:58;;;;;;;2.22;2.03;;;6.60;99.90;;;;;;5051625;28;20266;-40
2021/03/15 12:25:30;;;;;;;2.00;1.90;;;6.60;99.90;;;;;;5051386;28;20215;-40
2021/03/15 12:27:57;;;;;;;3.08;2.30;;;6.80;99.90;;;;;;5051324;28;20659;-40
2021/03/15 12:30:24;;;;;;;2.28;2.08;;;6.90;99.90;;;;;;5051354;28;20218;-40
2021/03/15 12:32:52;;;;;;;1.63;1.52;;;7.00;99.90;;;;;;5051410;28;20216;-39
2021/03/15 12:35:19;;;;;;;1.80;1.63;;;7.00;99.90;;;;;;5051150;28;20726;-40
2021/03/15 12:37:47;;;;;;;2.40;2.20;;;7.10;99.90;;;;;;5051251;28;20764;-39
2021/03/15 12:40:15;;;;;;;1.98;1.70;;;7.10;99.90;;;;;;5051243;28;20254;-39
2021/03/15 12:42:43;;;;;;;2.80;2.60;;;7.20;99.90;;;;;;5051207;28;20207;-38
2021/03/15 12:45:11;;;;;;;2.55;2.35;;;7.10;99.90;;;;;;5051076;28;20243;-39
2021/03/15 12:47:38;;;;;;;2.70;2.50;;;7.10;99.90;;;;;;5050772;28;20281;-39
2021/03/15 12:50:09;;;;;;;2.78;2.38;;;7.00;99.90;;;;;;5050144;28;20208;-40
2021/03/15 12:52:36;;;;;;;4.28;3.47;;;6.90;99.90;;;;;;5050964;28;20207;-40
2021/03/15 12:55:05;;;;;;;2.60;2.40;;;7.00;99.90;;;;;;5050870;28;20701;-39
2021/03/15 12:57:32;;;;;;;2.45;2.25;;;7.00;99.90;;;;;;5050979;28;20251;-40
2021/03/15 12:59:59;;;;;;;3.35;1.95;;;7.00;99.90;;;;;;5051128;28;20216;-40
2021/03/15 13:02:26;;;;;;;1.80;1.70;;;6.90;99.90;;;;;;5050986;28;20237;-41
2021/03/15 13:04:53;;;;;;;1.85;1.60;;;6.70;99.90;;;;;;5050939;28;20212;-40
2021/03/15 13:07:21;;;;;;;2.47;2.15;;;6.50;99.90;;;;;;5050948;28;20236;-40
2021/03/15 13:09:48;;;;;;;2.10;1.83;;;6.30;99.90;;;;;;5050758;28;20216;-40
2021/03/15 13:12:15;;;;;;;5.22;1.88;;;6.20;99.90;;;;;;5051043;28;20211;-39
2021/03/15 13:14:43;;;;;;;1.88;1.77;;;6.10;99.90;;;;;;5051859;28;20212;-40
2021/03/15 13:17:11;;;;;;;1.60;1.50;;;6.00;99.90;;;;;;5051063;28;20228;-41
2021/03/15 13:19:39;;;;;;;2.17;1.20;;;6.00;99.90;;;;;;5050889;28;20578;-41